Time;durP1;ratioP1;P1;durP2;ratioP2;P2;SDS_P1;SDS_P2;PMS_P1;PMS_P2;Temp;Humidity;BMP_temperature;BMP_pressure;BME280_temperature;BME280_humidity;BME280_pressure;Samples;Min_cycle;Max_cycle;Signal;HPM_P1;HPM_P2
2022/06/17 00:01:47;;;;;;;;;;;;;;;19.66;45.79;101306.41;5017800;28;6803;-78
2022/06/17 00:04:13;;;;;;;;;;;;;;;19.66;45.81;101304.72;5000784;28;6791;-78
2022/06/17 00:07:04;;;;;;;;;;;;;;;19.66;46.04;101291.72;5020820;28;6795;-78
2022/06/17 00:09:34;;;;;;;;;;;;;;;19.65;45.80;101296.84;5018737;28;8746;-78
2022/06/17 00:12:00;;;;;;;;;;;;;;;19.65;45.98;101304.66;5021025;28;7135;-78
2022/06/17 00:15:11;;;;;;;;;;;;;;;19.64;46.01;101308.09;5003010;28;8515;-78
2022/06/17 00:17:18;;;;;;;;;;;;;;;19.64;45.90;101310.69;5019619;28;6835;-78
2022/06/17 00:19:44;;;;;;;;;;;;;;;19.65;46.04;101305.56;5018959;28;6836;-78
2022/06/17 00:22:11;;;;;;;;;;;;;;;19.66;46.20;101298.63;5019176;28;6894;-78
2022/06/17 00:24:37;;;;;;;;;;;;;;;19.66;46.11;101298.63;5018268;28;6820;-78
2022/06/17 00:27:03;;;;;;;;;;;;;;;19.67;46.38;101302.97;5003787;28;7687;-78
2022/06/17 00:29:30;;;;;;;;;;;;;;;19.68;46.11;101299.53;5017963;28;8299;-78
2022/06/17 00:31:57;;;;;;;;;;;;;;;19.68;46.63;101295.22;5002565;28;7183;-78
2022/06/17 00:34:24;;;;;;;;;;;;;;;19.67;46.15;101297.75;5003162;28;6784;-78
2022/06/17 00:36:57;;;;;;;;;;;;;;;19.66;46.32;101293.41;5002208;28;8091;-78
2022/06/17 00:39:29;;;;;;;;;;;;;;;19.66;46.11;101283.00;5036052;28;6823;-78
2022/06/17 00:42:10;;;;;;;;;;;;;;;19.66;46.16;101290.81;5017561;28;7220;-78
2022/06/17 00:44:40;;;;;;;;;;;;;;;19.67;46.13;101288.25;5019917;28;7130;-78
2022/06/17 00:47:50;;;;;;;;;;;;;;;19.69;46.14;101281.38;5018965;28;7763;-78
2022/06/17 00:50:27;;;;;;;;;;;;;;;19.71;46.38;101284.03;5021100;28;6827;-78
2022/06/17 00:53:07;;;;;;;;;;;;;;;19.73;46.12;101289.22;5026438;28;6811;-78
2022/06/17 00:56:15;;;;;;;;;;;;;;;19.74;46.20;101299.69;5019599;28;6823;-78
2022/06/17 00:58:59;;;;;;;;;;;;;;;19.71;46.37;101297.03;5019173;28;6811;-78
2022/06/17 01:01:27;;;;;;;;;;;;;;;19.68;46.69;101297.81;4999511;28;8136;-78
2022/06/17 01:04:00;;;;;;;;;;;;;;;19.66;46.91;101302.09;5005721;28;6800;-78
2022/06/17 01:06:35;;;;;;;;;;;;;;;19.64;46.41;101305.50;5018759;28;7414;-78
2022/06/17 01:12:02;;;;;;;;;;;;;;;19.53;46.71;101308.72;5005011;28;6959;-78
2022/06/17 01:14:29;;;;;;;;;;;;;;;19.49;46.70;101306.84;5021742;28;7198;-78
2022/06/17 01:16:58;;;;;;;;;;;;;;;19.42;46.47;101303.22;5021733;28;7019;-78
2022/06/17 01:19:57;;;;;;;;;;;;;;;19.35;46.52;101301.31;5022714;28;6799;-78
2022/06/17 01:22:25;;;;;;;;;;;;;;;19.25;46.85;101310.59;5019511;28;6816;-78
2022/06/17 01:24:58;;;;;;;;;;;;;;;19.18;47.27;101313.84;5015993;28;6880;-78
2022/06/17 01:27:32;;;;;;;;;;;;;;;19.12;47.11;101311.97;5001171;28;7550;-78
2022/06/17 01:29:58;;;;;;;;;;;;;;;19.08;46.76;101301.44;5000661;28;7751;-78
2022/06/17 01:32:32;;;;;;;;;;;;;;;19.04;46.94;101315.22;5008760;28;6796;-78
2022/06/17 01:35:00;;;;;;;;;;;;;;;18.98;47.48;101311.56;5020828;28;6815;-78
2022/06/17 01:37:30;;;;;;;;;;;;;;;18.95;47.90;101320.97;5012595;28;6816;-78
2022/06/17 01:39:57;;;;;;;;;;;;;;;18.92;47.85;101326.97;5025458;28;6819;-78
2022/06/17 01:42:26;;;;;;;;;;;;;;;18.88;48.29;101332.91;4997209;28;7157;-78
2022/06/17 01:44:55;;;;;;;;;;;;;;;18.84;48.34;101328.47;5008726;28;7060;-78
2022/06/17 01:47:26;;;;;;;;;;;;;;;18.78;47.76;101321.38;5016166;28;6820;-78
2022/06/17 01:50:00;;;;;;;;;;;;;;;18.74;47.99;101322.13;5001641;28;7640;-78
2022/06/17 01:52:54;;;;;;;;;;;;;;;18.71;48.21;101322.91;5017015;28;6904;-78
2022/06/17 01:55:36;;;;;;;;;;;;;;;18.69;48.46;101322.00;4993411;28;7119;-78
2022/06/17 01:58:39;;;;;;;;;;;;;;;18.64;48.28;101335.69;5013013;28;7030;-78
2022/06/17 02:01:08;;;;;;;;;;;;;;;18.58;48.78;101339.84;5016678;28;6816;-78
2022/06/17 02:03:45;;;;;;;;;;;;;;;18.55;48.70;101336.31;5011300;28;7624;-78
2022/06/17 02:06:41;;;;;;;;;;;;;;;18.53;48.74;101330.16;5010725;28;8399;-78
2022/06/17 02:09:07;;;;;;;;;;;;;;;18.49;48.68;101329.19;5007551;28;7260;-78
2022/06/17 02:11:34;;;;;;;;;;;;;;;18.46;48.94;101322.19;5022866;28;6820;-78
2022/06/17 02:14:06;;;;;;;;;;;;;;;18.45;49.08;101316.97;5014291;28;6808;-78
2022/06/17 02:16:46;;;;;;;;;;;;;;;18.40;48.73;101322.00;4997142;28;6804;-78
2022/06/17 02:19:12;;;;;;;;;;;;;;;18.35;48.78;101318.41;4996046;28;7015;-78
2022/06/17 02:21:50;;;;;;;;;;;;;;;18.30;48.69;101314.78;5019830;28;7998;-78
2022/06/17 02:24:19;;;;;;;;;;;;;;;18.27;48.90;101320.75;5012740;28;7023;-78
2022/06/17 02:26:48;;;;;;;;;;;;;;;18.26;49.33;101323.31;4999191;28;7814;-78
2022/06/17 02:29:15;;;;;;;;;;;;;;;18.23;49.62;101323.19;5014960;28;6880;-78
2022/06/17 02:31:43;;;;;;;;;;;;;;;18.17;49.74;101322.19;5018823;28;7234;-78
2022/06/17 02:34:15;;;;;;;;;;;;;;;18.12;50.27;101315.97;5016201;28;6812;-78
2022/06/17 02:36:58;;;;;;;;;;;;;;;18.07;50.69;101320.13;5023531;28;6815;-78
2022/06/17 02:39:26;;;;;;;;;;;;;;;18.06;50.38;101326.16;5019025;28;6803;-78
2022/06/17 02:41:52;;;;;;;;;;;;;;;18.07;50.78;101325.31;5006987;28;8786;-78
2022/06/17 02:44:39;;;;;;;;;;;;;;;18.06;50.85;101326.16;4997656;28;6804;-78
2022/06/17 02:47:08;;;;;;;;;;;;;;;18.05;50.57;101329.56;4989575;28;6969;-78
2022/06/17 02:49:36;;;;;;;;;;;;;;;18.04;50.95;101333.88;5022131;28;6799;-78
2022/06/17 02:52:12;;;;;;;;;;;;;;;18.02;51.08;101327.75;4997373;28;7072;-78
2022/06/17 02:54:48;;;;;;;;;;;;;;;18.00;51.12;101331.09;5014058;28;6799;-78
2022/06/17 02:57:25;;;;;;;;;;;;;;;17.98;51.34;101331.06;5011969;28;7874;-78
2022/06/17 03:00:20;;;;;;;;;;;;;;;17.97;51.45;101333.63;4997841;28;7892;-78
2022/06/17 03:03:09;;;;;;;;;;;;;;;17.95;51.42;101335.25;5009155;28;6811;-78
2022/06/17 03:05:41;;;;;;;;;;;;;;;17.94;51.35;101336.97;5012265;28;6978;-78
2022/06/17 03:08:32;;;;;;;;;;;;;;;17.97;50.84;101331.03;5017689;28;7629;-78
2022/06/17 03:11:01;;;;;;;;;;;;;;;17.98;51.18;101327.59;5002090;28;7088;-78
2022/06/17 03:13:48;;;;;;;;;;;;;;;17.98;51.13;101327.59;5007298;28;7653;-78
2022/06/17 03:16:16;;;;;;;;;;;;;;;17.97;50.39;101325.84;5008849;28;7645;-78
2022/06/17 03:18:46;;;;;;;;;;;;;;;17.95;51.27;101320.59;5016820;28;6799;-78
2022/06/17 03:21:17;;;;;;;;;;;;;;;17.95;50.80;101317.09;5015079;28;7110;-78
2022/06/17 03:24:12;;;;;;;;;;;;;;;17.91;50.79;101316.13;5001110;28;6808;-78
2022/06/17 03:26:57;;;;;;;;;;;;;;;17.86;51.55;101315.97;5015751;28;7132;-78
2022/06/17 03:29:27;;;;;;;;;;;;;;;17.85;51.31;101315.94;5000883;28;8467;-78
2022/06/17 03:32:10;;;;;;;;;;;;;;;17.83;51.04;101318.47;5007926;28;6972;-78
2022/06/17 03:35:14;;;;;;;;;;;;;;;17.81;51.29;101320.13;5016768;28;6811;-78
2022/06/17 03:38:02;;;;;;;;;;;;;;;17.83;51.21;101330.56;4991123;28;7082;-78
2022/06/17 03:40:32;;;;;;;;;;;;;;;17.86;51.46;101323.75;5016870;28;6799;-78
2022/06/17 03:43:15;;;;;;;;;;;;;;;17.95;51.61;101332.66;5015242;28;6966;-78
2022/06/17 03:46:05;;;;;;;;;;;;;;;18.07;51.87;101330.53;5000508;28;7716;-78
2022/06/17 03:49:15;;;;;;;;;;;;;;;18.21;51.74;101324.88;5000481;28;8593;-78
2022/06/17 03:51:43;;;;;;;;;;;;;;;18.31;51.69;101333.00;4998210;28;8235;-78
2022/06/17 03:54:16;;;;;;;;;;;;;;;18.45;51.89;101329.94;5007793;28;6984;-78
2022/06/17 03:56:50;;;;;;;;;;;;;;;18.56;51.39;101331.13;5019603;28;7019;-78
2022/06/17 03:59:30;;;;;;;;;;;;;;;18.71;51.82;101327.25;4999527;28;8288;-78
2022/06/17 04:02:11;;;;;;;;;;;;;;;18.88;51.68;101330.31;4991955;28;7257;-78
2022/06/17 04:04:43;;;;;;;;;;;;;;;19.01;50.92;101326.38;4997339;28;7052;-78
2022/06/17 04:07:12;;;;;;;;;;;;;;;19.16;51.03;101331.13;4999803;28;7081;-78
2022/06/17 04:09:43;;;;;;;;;;;;;;;19.31;50.76;101338.47;5015917;28;6803;-78
2022/06/17 04:12:11;;;;;;;;;;;;;;;19.44;50.65;101331.88;5013802;28;6887;-78
2022/06/17 04:15:17;;;;;;;;;;;;;;;19.64;50.49;101339.31;5030008;28;6930;-78
2022/06/17 04:17:48;;;;;;;;;;;;;;;19.89;50.83;101335.59;5023039;28;8618;-78
2022/06/17 04:20:36;;;;;;;;;;;;;;;20.24;51.20;101339.91;5016543;28;6799;-78
2022/06/17 04:23:10;;;;;;;;;;;;;;;20.68;50.86;101340.00;5005844;28;8500;-78
2022/06/17 04:25:44;;;;;;;;;;;;;;;21.09;50.01;101346.06;5020349;28;6821;-78
2022/06/17 04:28:18;;;;;;;;;;;;;;;21.49;49.31;101346.81;5007804;28;8010;-78
2022/06/17 04:30:58;;;;;;;;;;;;;;;21.87;48.97;101348.31;5015427;28;6807;-78
2022/06/17 04:34:06;;;;;;;;;;;;;;;22.25;48.05;101346.28;5022172;28;6902;-78
2022/06/17 04:36:58;;;;;;;;;;;;;;;22.61;48.08;101351.19;5021167;28;6904;-78
2022/06/17 04:39:32;;;;;;;;;;;;;;;22.90;47.20;101349.81;5008025;28;7775;-78
2022/06/17 04:42:05;;;;;;;;;;;;;;;23.17;46.99;101354.44;5024735;28;6807;-78
2022/06/17 04:44:31;;;;;;;;;;;;;;;23.46;46.84;101354.78;5020341;28;6800;-78
2022/06/17 04:47:12;;;;;;;;;;;;;;;23.74;46.50;101349.78;5018811;28;6976;-78
2022/06/17 04:49:45;;;;;;;;;;;;;;;23.93;45.53;101342.97;5022097;28;6811;-78
2022/06/17 04:52:43;;;;;;;;;;;;;;;24.06;45.51;101346.59;4999477;28;6807;-78
2022/06/17 04:55:24;;;;;;;;;;;;;;;24.02;44.13;101347.38;5011732;28;7425;-79
2022/06/17 04:57:50;;;;;;;;;;;;;;;23.94;44.36;101347.34;5021613;28;7868;-79
2022/06/17 05:00:25;;;;;;;;;;;;;;;23.86;44.37;101339.44;5013736;28;6969;-79
2022/06/17 05:02:52;;;;;;;;;;;;;;;23.80;44.49;101339.38;5018035;28;7204;-79
2022/06/17 05:05:39;;;;;;;;;;;;;;;23.68;43.77;101338.44;5013075;28;8538;-79
2022/06/17 05:08:18;;;;;;;;;;;;;;;23.60;44.28;101328.75;5015058;28;8088;-79
2022/06/17 05:10:52;;;;;;;;;;;;;;;23.61;45.11;101327.88;5029276;28;6811;-79
2022/06/17 05:13:27;;;;;;;;;;;;;;;23.82;46.32;101330.69;5015233;28;7209;-79
2022/06/17 05:15:53;;;;;;;;;;;;;;;24.16;46.40;101323.94;5019517;28;7927;-79
2022/06/17 05:18:19;;;;;;;;;;;;;;;24.58;47.27;101322.44;4996220;28;6870;-79
2022/06/17 05:20:45;;;;;;;;;;;;;;;25.03;46.26;101306.91;4988403;28;6966;-79
2022/06/17 05:23:16;;;;;;;;;;;;;;;25.50;46.01;101307.84;5013709;28;7181;-79
2022/06/17 05:25:46;;;;;;;;;;;;;;;25.92;44.96;101318.31;5015306;28;6816;-79
2022/06/17 05:28:17;;;;;;;;;;;;;;;26.22;43.22;101318.31;5016820;28;6812;-79
2022/06/17 05:30:51;;;;;;;;;;;;;;;26.38;42.22;101311.25;5021313;28;6820;-79
2022/06/17 05:33:18;;;;;;;;;;;;;;;26.40;41.74;101306.84;5017579;28;6811;-79
2022/06/17 05:35:44;;;;;;;;;;;;;;;26.36;41.37;101312.13;5016236;28;6800;-79
2022/06/17 05:38:10;;;;;;;;;;;;;;;26.31;41.59;101317.41;5016921;28;6795;-79
2022/06/17 05:40:38;;;;;;;;;;;;;;;26.25;41.25;101314.78;5011192;28;7228;-79
2022/06/17 05:43:05;;;;;;;;;;;;;;;26.17;41.35;101313.03;4984530;28;8056;-79
2022/06/17 05:45:32;;;;;;;;;;;;;;;26.05;41.26;101303.41;5008508;28;6982;-79
2022/06/17 05:47:58;;;;;;;;;;;;;;;26.00;41.50;101304.31;4992502;28;6989;-79
2022/06/17 05:50:26;;;;;;;;;;;;;;;26.00;41.24;101313.03;5021282;28;6803;-79
2022/06/17 05:53:05;;;;;;;;;;;;;;;26.07;41.90;101311.28;5010027;28;8111;-79
2022/06/17 05:55:33;;;;;;;;;;;;;;;26.31;42.29;101301.63;5001317;28;6816;-79
2022/06/17 05:58:00;;;;;;;;;;;;;;;26.66;42.44;101303.25;5021273;28;6799;-79
2022/06/17 06:00:28;;;;;;;;;;;;;;;27.04;41.92;101298.66;5017077;28;6831;-79
2022/06/17 06:03:05;;;;;;;;;;;;;;;27.42;41.59;101288.72;5016301;28;7251;-79
2022/06/17 06:05:33;;;;;;;;;;;;;;;27.70;40.80;101293.78;4992908;28;8681;-78
2022/06/17 06:07:59;;;;;;;;;;;;;;;27.88;40.17;101283.97;5005460;28;7163;-77
2022/06/17 06:10:26;;;;;;;;;;;;;;;28.02;39.83;101284.72;5015764;28;6958;-77
2022/06/17 06:12:57;;;;;;;;;;;;;;;28.11;38.92;101279.34;5014349;28;7192;-77
2022/06/17 06:15:42;;;;;;;;;;;;;;;28.17;38.19;101277.50;4998950;28;7024;-77
2022/06/17 06:18:14;;;;;;;;;;;;;;;28.18;37.35;101276.63;5017279;28;7221;-77
2022/06/17 06:20:40;;;;;;;;;;;;;;;28.20;37.17;101288.91;5016056;28;7306;-77
2022/06/17 06:23:06;;;;;;;;;;;;;;;28.27;37.28;101302.88;5016298;28;6896;-77
2022/06/17 06:25:32;;;;;;;;;;;;;;;28.30;37.25;101294.09;5015654;28;6867;-77
2022/06/17 06:27:58;;;;;;;;;;;;;;;28.30;36.90;101287.06;4991071;28;6984;-77
2022/06/17 06:30:25;;;;;;;;;;;;;;;28.25;37.13;101287.13;5016655;28;6807;-77
2022/06/17 06:32:58;;;;;;;;;;;;;;;28.17;37.26;101288.94;5016828;28;6893;-77
2022/06/17 06:35:33;;;;;;;;;;;;;;;28.10;37.63;101280.22;5016248;28;6800;-77
2022/06/17 06:38:00;;;;;;;;;;;;;;;28.03;37.12;101280.28;5008615;28;8641;-77
2022/06/17 06:40:27;;;;;;;;;;;;;;;27.99;37.46;101280.34;5000510;28;6800;-77
2022/06/17 06:42:55;;;;;;;;;;;;;;;27.99;37.48;101290.00;4999079;28;6816;-77
2022/06/17 06:45:29;;;;;;;;;;;;;;;28.04;37.99;101282.94;5015221;28;6868;-77
2022/06/17 06:47:58;;;;;;;;;;;;;;;28.08;37.92;101273.22;5014976;28;7123;-77
2022/06/17 06:50:29;;;;;;;;;;;;;;;28.17;37.64;101278.41;5015156;28;7549;-77
2022/06/17 06:52:55;;;;;;;;;;;;;;;28.24;37.16;101264.25;5016462;28;7178;-78
2022/06/17 06:55:21;;;;;;;;;;;;;;;28.32;37.22;101273.84;5007486;28;6879;-77
2022/06/17 06:57:54;;;;;;;;;;;;;;;28.37;37.46;101278.16;5013021;28;6815;-77
2022/06/17 07:00:36;;;;;;;;;;;;;;;28.48;37.04;101266.59;5015852;28;6815;-77
2022/06/17 07:03:04;;;;;;;;;;;;;;;28.60;36.30;101263.81;4999238;28;7021;-77
2022/06/17 07:05:31;;;;;;;;;;;;;;;28.69;36.48;101268.97;4998885;28;6819;-77
2022/06/17 07:07:57;;;;;;;;;;;;;;;28.82;36.85;101271.44;5016393;28;6812;-77
2022/06/17 07:10:29;;;;;;;;;;;;;;;28.92;36.52;101270.44;5001013;28;6999;-77
2022/06/17 07:12:55;;;;;;;;;;;;;;;28.98;36.20;101272.09;5015315;28;6852;-77
2022/06/17 07:15:22;;;;;;;;;;;;;;;29.02;36.04;101279.09;5000560;28;6812;-77
2022/06/17 07:18:19;;;;;;;;;;;;;;;29.01;35.96;101273.81;5020025;28;6819;-77
2022/06/17 07:20:50;;;;;;;;;;;;;;;29.00;36.31;101272.94;5015704;28;6819;-77
2022/06/17 07:23:29;;;;;;;;;;;;;;;29.04;36.62;101276.41;5007711;28;6899;-76
2022/06/17 07:25:58;;;;;;;;;;;;;;;29.08;36.08;101284.25;5018473;28;6981;-76
2022/06/17 07:28:25;;;;;;;;;;;;;;;29.06;36.50;101279.88;5018787;28;7062;-76
2022/06/17 07:30:54;;;;;;;;;;;;;;;29.05;36.69;101286.06;5024512;28;6839;-76
2022/06/17 07:33:23;;;;;;;;;;;;;;;29.07;36.73;101287.78;5009996;28;8120;-76
2022/06/17 07:35:53;;;;;;;;;;;;;;;29.17;36.80;101292.91;5022544;28;7255;-76
2022/06/17 07:41:08;;;;;;;;;;;;;;;29.45;36.97;101297.78;5010642;28;6929;-76
2022/06/17 07:43:34;;;;;;;;;;;;;;;29.56;36.63;101300.25;4999642;28;6974;-76
2022/06/17 07:46:02;;;;;;;;;;;;;;;29.69;37.00;101295.59;5017501;28;6815;-76
2022/06/17 07:48:28;;;;;;;;;;;;;;;29.91;36.87;101301.38;4997301;28;6853;-76
2022/06/17 07:50:58;;;;;;;;;;;;;;;30.16;36.84;101291.22;4995538;28;7055;-78
2022/06/17 07:53:27;;;;;;;;;;;;;;;30.52;35.89;101295.78;5018252;28;6908;-77
2022/06/17 07:55:54;;;;;;;;;;;;;;;30.88;35.23;101298.53;5006768;28;6845;-77
2022/06/17 07:58:20;;;;;;;;;;;;;;;31.26;34.82;101292.38;5010231;28;6816;-77
2022/06/17 08:00:47;;;;;;;;;;;;;;;31.69;34.82;101301.91;5009273;28;6875;-77
2022/06/17 08:03:16;;;;;;;;;;;;;;;32.17;33.69;101294.44;5003349;28;7014;-77
2022/06/17 08:05:48;;;;;;;;;;;;;;;32.53;32.90;101286.31;5015823;28;8096;-77
2022/06/17 08:08:21;;;;;;;;;;;;;;;32.77;32.45;101281.19;5011193;28;6815;-77
2022/06/17 08:10:57;;;;;;;;;;;;;;;32.99;32.06;101275.22;4998731;28;6815;-77
2022/06/17 08:13:23;;;;;;;;;;;;;;;33.26;31.70;101264.59;5015541;28;7204;-77
2022/06/17 08:15:54;;;;;;;;;;;;;;;33.58;31.85;101272.41;5020465;28;6803;-77
2022/06/17 08:18:20;;;;;;;;;;;;;;;33.89;31.54;101268.63;5016592;28;7015;-77
2022/06/17 08:20:46;;;;;;;;;;;;;;;34.16;31.27;101263.25;5019019;28;7295;-77
2022/06/17 08:23:13;;;;;;;;;;;;;;;34.41;30.46;101265.84;5020426;28;7291;-77
2022/06/17 08:25:39;;;;;;;;;;;;;;;34.66;30.38;101254.22;4979473;28;6927;-77
2022/06/17 08:28:08;;;;;;;;;;;;;;;34.97;30.00;101242.34;5014631;28;7124;-77
2022/06/17 08:30:39;;;;;;;;;;;;;;;35.25;29.46;101243.88;5012363;28;7389;-77
2022/06/17 08:33:06;;;;;;;;;;;;;;;35.49;28.46;101243.72;5023159;28;6892;-77
2022/06/17 08:35:37;;;;;;;;;;;;;;;35.69;28.38;101239.31;5021535;28;6835;-77
2022/06/17 08:38:08;;;;;;;;;;;;;;;35.88;27.22;101246.50;5019262;28;7113;-77
2022/06/17 08:40:52;;;;;;;;;;;;;;;35.97;27.07;101254.06;4997746;28;7197;-77
2022/06/17 08:43:52;;;;;;;;;;;;;;;36.02;26.57;101248.53;5016010;28;6934;-77
2022/06/17 08:46:43;;;;;;;;;;;;;;;36.26;26.85;101255.38;5015526;28;8416;-77
2022/06/17 08:50:05;;;;;;;;;;;;;;;36.62;25.36;101256.41;5021641;28;6803;-77
2022/06/17 08:53:30;;;;;;;;;;;;;;;37.04;24.99;101261.50;5016176;28;6812;-77
2022/06/17 08:56:42;;;;;;;;;;;;;;;37.34;24.38;101252.88;4976161;28;6820;-77
2022/06/17 08:59:44;;;;;;;;;;;;;;;37.66;24.16;101253.00;5015533;28;6808;-78
2022/06/17 09:02:32;;;;;;;;;;;;;;;38.09;23.97;101249.00;5026067;28;6891;-77
2022/06/17 09:05:43;;;;;;;;;;;;;;;38.56;23.11;101250.81;4985990;28;7675;-78
2022/06/17 09:08:46;;;;;;;;;;;;;;;38.82;22.45;101243.06;5019230;28;7244;-77
2022/06/17 09:11:57;;;;;;;;;;;;;;;38.88;22.45;101242.72;5020198;28;7620;-77
2022/06/17 09:15:01;;;;;;;;;;;;;;;39.06;22.21;101239.94;5001960;28;7185;-77
2022/06/17 09:17:41;;;;;;;;;;;;;;;39.40;22.19;101240.53;4967931;28;7272;-77
2022/06/17 09:20:14;;;;;;;;;;;;;;;39.85;21.51;101236.94;5013470;28;6800;-77
2022/06/17 09:22:49;;;;;;;;;;;;;;;40.29;21.24;101244.97;5017010;28;6811;-77
2022/06/17 09:25:24;;;;;;;;;;;;;;;40.46;20.37;101241.19;5002138;28;7920;-77
2022/06/17 09:27:55;;;;;;;;;;;;;;;40.32;20.17;101239.41;5009848;28;7086;-77
2022/06/17 09:30:32;;;;;;;;;;;;;;;40.16;20.15;101235.00;5016909;28;7160;-77
2022/06/17 09:33:31;;;;;;;;;;;;;;;40.25;20.17;101229.03;5016576;28;6895;-77
2022/06/17 09:36:05;;;;;;;;;;;;;;;40.62;20.05;101219.53;5001396;28;7655;-77
2022/06/17 09:38:52;;;;;;;;;;;;;;;40.93;19.50;101218.34;4984808;28;8628;-77
2022/06/17 09:41:34;;;;;;;;;;;;;;;41.13;18.53;101213.44;5005516;28;6843;-77
2022/06/17 09:44:11;;;;;;;;;;;;;;;41.31;18.92;101211.28;5018087;28;6897;-77
2022/06/17 09:46:51;;;;;;;;;;;;;;;41.58;18.37;101202.25;5017411;28;7932;-77
2022/06/17 09:49:37;;;;;;;;;;;;;;;41.84;18.29;101207.59;5014537;28;6820;-77
2022/06/17 09:52:30;;;;;;;;;;;;;;;42.09;18.20;101210.34;5017415;28;8181;-77
2022/06/17 09:55:11;;;;;;;;;;;;;;;42.38;18.01;101207.31;5016621;28;6970;-77
2022/06/17 09:57:52;;;;;;;;;;;;;;;42.63;17.53;101198.28;5000889;28;6808;-77
2022/06/17 10:00:22;;;;;;;;;;;;;;;42.80;17.47;101209.59;5009586;28;6976;-77
2022/06/17 10:03:19;;;;;;;;;;;;;;;43.02;17.21;101214.19;5008526;28;7168;-77
2022/06/17 10:06:16;;;;;;;;;;;;;;;43.05;16.64;101213.09;5016824;28;8335;-77
2022/06/17 10:09:17;;;;;;;;;;;;;;;42.91;16.57;101222.22;5017556;28;7215;-77
2022/06/17 10:11:45;;;;;;;;;;;;;;;42.87;16.36;101213.50;5019733;28;7204;-77
2022/06/17 10:14:56;;;;;;;;;;;;;;;43.07;16.48;101216.50;5038410;28;6985;-77
2022/06/17 10:21:23;;;;;;;;;;;;;;;43.59;15.96;101211.53;5018764;28;6867;-77
2022/06/17 10:24:05;;;;;;;;;;;;;;;43.68;15.62;101216.19;5007280;28;7837;-77
2022/06/17 10:27:07;;;;;;;;;;;;;;;43.88;15.61;101210.22;5020799;28;7261;-77
2022/06/17 10:30:00;;;;;;;;;;;;;;;44.09;15.23;101213.81;5019775;28;6988;-77
2022/06/17 10:32:29;;;;;;;;;;;;;;;44.35;15.63;101208.13;5022135;28;6827;-77
2022/06/17 10:35:01;;;;;;;;;;;;;;;44.57;15.33;101202.72;5019696;28;7907;-77
2022/06/17 10:37:31;;;;;;;;;;;;;;;44.51;15.13;101212.22;5003669;28;7269;-77
2022/06/17 10:39:59;;;;;;;;;;;;;;;44.56;15.04;101204.59;5010837;28;6816;-77
2022/06/17 10:42:27;;;;;;;;;;;;;;;44.70;14.93;101207.97;5015702;28;6851;-77
2022/06/17 10:44:59;;;;;;;;;;;;;;;44.90;14.85;101204.41;5018502;28;6807;-77
2022/06/17 10:47:36;;;;;;;;;;;;;;;45.05;14.88;101196.84;5010458;28;7379;-77
2022/06/17 10:50:19;;;;;;;;;;;;;;;44.87;15.04;101196.56;4992757;28;7206;-77
2022/06/17 10:52:57;;;;;;;;;;;;;;;44.70;15.25;101205.28;5012391;28;7062;-77
2022/06/17 10:55:37;;;;;;;;;;;;;;;44.47;14.82;101200.81;5012836;28;6807;-77
2022/06/17 10:58:11;;;;;;;;;;;;;;;44.25;15.13;101204.50;5015345;28;6812;-77
2022/06/17 11:01:07;;;;;;;;;;;;;;;44.21;14.89;101205.72;5012274;28;6807;-77
2022/06/17 11:03:39;;;;;;;;;;;;;;;44.19;14.93;101194.19;5010435;28;6812;-77
2022/06/17 11:06:15;;;;;;;;;;;;;;;44.31;14.85;101195.84;5006953;28;8574;-77
2022/06/17 11:08:59;;;;;;;;;;;;;;;44.35;14.57;101186.53;4980746;28;8561;-77
2022/06/17 11:14:50;;;;;;;;;;;;;;;43.93;14.74;101184.56;5009574;28;6999;-77
2022/06/17 11:17:31;;;;;;;;;;;;;;;43.80;15.06;101182.00;5029798;28;8086;-77
2022/06/17 11:20:15;;;;;;;;;;;;;;;43.57;15.33;101179.31;5008918;28;7679;-78
2022/06/17 11:23:15;;;;;;;;;;;;;;;43.43;15.04;101179.56;5013149;28;7868;-77
2022/06/17 11:25:43;;;;;;;;;;;;;;;43.28;15.32;101177.09;5022827;28;7160;-77
2022/06/17 11:28:23;;;;;;;;;;;;;;;43.29;15.32;101173.41;4990180;28;6979;-77
2022/06/17 11:31:12;;;;;;;;;;;;;;;43.36;15.10;101178.31;5019140;28;7031;-77
2022/06/17 11:33:53;;;;;;;;;;;;;;;43.47;15.23;101178.34;5026182;28;6907;-77
2022/06/17 11:36:48;;;;;;;;;;;;;;;43.53;14.46;101161.66;5013909;28;7137;-77
2022/06/17 11:39:35;;;;;;;;;;;;;;;43.69;14.66;101163.09;5001210;28;6808;-77
2022/06/17 11:42:17;;;;;;;;;;;;;;;43.94;14.95;101156.56;5018434;28;6811;-77
2022/06/17 11:44:55;;;;;;;;;;;;;;;44.15;14.38;101154.91;5018204;28;7033;-77
2022/06/17 11:47:27;;;;;;;;;;;;;;;44.30;14.54;101156.34;5008541;28;7216;-77
2022/06/17 11:50:10;;;;;;;;;;;;;;;44.50;14.38;101156.47;5015132;28;6800;-77
2022/06/17 11:52:37;;;;;;;;;;;;;;;44.73;14.40;101151.00;5012113;28;7015;-77
2022/06/17 11:55:04;;;;;;;;;;;;;;;44.95;14.22;101149.94;4998155;28;6995;-77
2022/06/17 11:57:36;;;;;;;;;;;;;;;45.05;13.69;101141.94;5001120;28;6887;-77
2022/06/17 12:00:40;;;;;;;;;;;;;;;45.17;13.77;101138.13;5021857;28;6896;-77
2022/06/17 12:03:06;;;;;;;;;;;;;;;45.26;13.45;101136.47;5011285;28;6811;-77
2022/06/17 12:05:34;;;;;;;;;;;;;;;45.43;13.37;101139.50;5027677;28;6787;-77
2022/06/17 12:08:26;;;;;;;;;;;;;;;45.63;13.23;101137.72;5017553;28;7165;-77
2022/06/17 12:10:58;;;;;;;;;;;;;;;45.77;13.27;101134.63;5019432;28;7140;-77
2022/06/17 12:13:35;;;;;;;;;;;;;;;45.67;13.00;101131.03;5005034;28;7316;-77
2022/06/17 12:16:43;;;;;;;;;;;;;;;45.39;13.10;101128.13;5020079;28;6811;-77
2022/06/17 12:19:20;;;;;;;;;;;;;;;45.30;13.38;101116.25;5002014;28;7047;-77
2022/06/17 12:22:10;;;;;;;;;;;;;;;45.37;13.53;101111.16;5019050;28;7198;-77
2022/06/17 12:25:25;;;;;;;;;;;;;;;45.43;13.31;101115.16;5018877;28;6887;-77
2022/06/17 12:28:19;;;;;;;;;;;;;;;45.31;13.44;101119.84;5035262;28;6880;-77
2022/06/17 12:30:59;;;;;;;;;;;;;;;45.16;13.24;101120.19;5017705;28;6811;-77
2022/06/17 12:34:08;;;;;;;;;;;;;;;45.12;13.52;101116.06;5001354;28;6972;-77
2022/06/17 12:36:53;;;;;;;;;;;;;;;45.19;13.43;101108.25;4994908;28;7238;-77
2022/06/17 12:39:44;;;;;;;;;;;;;;;45.28;13.59;101101.16;4986115;28;9979;-77
2022/06/17 12:42:45;;;;;;;;;;;;;;;45.45;13.57;101095.09;5018261;28;6977;-77
2022/06/17 12:45:28;;;;;;;;;;;;;;;45.57;13.25;101092.28;5020015;28;7072;-77
2022/06/17 12:48:26;;;;;;;;;;;;;;;45.67;13.31;101093.13;5017489;28;6799;-77
2022/06/17 12:54:14;;;;;;;;;;;;;;;45.42;13.36;101084.56;5018802;28;6990;-77
2022/06/17 12:57:07;;;;;;;;;;;;;;;45.03;13.35;101073.63;5021460;28;6823;-77
2022/06/17 13:00:04;;;;;;;;;;;;;;;44.71;14.00;101078.16;5018056;28;6807;-77
2022/06/17 13:02:47;;;;;;;;;;;;;;;44.67;14.20;101080.25;5009159;28;7876;-77
2022/06/17 13:05:44;;;;;;;;;;;;;;;44.77;13.91;101074.06;5017411;28;7853;-77
2022/06/17 13:08:22;;;;;;;;;;;;;;;44.86;13.90;101069.66;5005730;28;7218;-77
2022/06/17 13:11:03;;;;;;;;;;;;;;;44.92;13.65;101075.41;5018747;28;6988;-77
2022/06/17 13:13:44;;;;;;;;;;;;;;;44.90;13.30;101063.00;5001475;28;6884;-78
2022/06/17 13:16:34;;;;;;;;;;;;;;;44.73;13.18;101072.63;5018358;28;6815;-78
2022/06/17 13:19:18;;;;;;;;;;;;;;;44.50;13.27;101062.78;5026299;28;7279;-77
2022/06/17 13:22:01;;;;;;;;;;;;;;;44.22;13.38;101056.22;5021022;28;7075;-77
2022/06/17 13:25:01;;;;;;;;;;;;;;;44.04;13.81;101054.09;5008682;28;6804;-77
2022/06/17 13:27:54;;;;;;;;;;;;;;;43.94;13.67;101047.72;5021336;28;6811;-77
2022/06/17 13:30:42;;;;;;;;;;;;;;;43.95;14.12;101035.97;5005823;28;7008;-76
2022/06/17 13:33:19;;;;;;;;;;;;;;;43.95;13.64;101044.91;5001969;28;6811;-77
2022/06/17 13:36:16;;;;;;;;;;;;;;;43.89;14.05;101045.41;4993530;28;6994;-77
2022/06/17 13:39:15;;;;;;;;;;;;;;;43.88;13.97;101037.47;4999786;28;6812;-77
2022/06/17 13:42:04;;;;;;;;;;;;;;;43.87;13.94;101033.06;5010997;28;8439;-77
2022/06/17 13:45:26;;;;;;;;;;;;;;;43.88;14.38;101037.47;5018996;28;6819;-77
2022/06/17 13:48:30;;;;;;;;;;;;;;;43.80;14.25;101043.50;5002982;28;8013;-77
2022/06/17 13:51:27;;;;;;;;;;;;;;;43.64;14.46;101035.81;4998963;28;6816;-77
2022/06/17 13:54:34;;;;;;;;;;;;;;;43.47;14.59;101040.78;5040999;28;6816;-77
2022/06/17 13:57:22;;;;;;;;;;;;;;;43.34;14.60;101035.53;4987330;28;6812;-77
2022/06/17 13:59:55;;;;;;;;;;;;;;;43.17;14.66;101036.88;5005835;28;8518;-77
2022/06/17 14:02:24;;;;;;;;;;;;;;;42.89;14.92;101029.16;5023269;28;7058;-77